Time;durP1;ratioP1;P1;durP2;ratioP2;P2;SDS_P1;SDS_P2;PMS_P1;PMS_P2;Temp;Humidity;BMP_temperature;BMP_pressure;BME280_temperature;BME280_humidity;BME280_pressure;Samples;Min_cycle;Max_cycle;Signal;HPM_P1;HPM_P2
2022/07/19 00:00:27;;;;;;;3.50;2.78;;;;;;;;;;5027695;28;20030;-76
2022/07/19 00:02:53;;;;;;;3.80;3.47;;;;;;;;;;5029736;28;20037;-77
2022/07/19 00:05:20;;;;;;;4.25;3.50;;;;;;;;;;5028273;28;20086;-76
2022/07/19 00:07:47;;;;;;;3.50;3.20;;;;;;;;;;5027859;28;20061;-77
2022/07/19 00:10:14;;;;;;;4.68;4.20;;;;;;;;;;5031906;28;20068;-75
2022/07/19 00:12:40;;;;;;;6.00;3.40;;;;;;;;;;5030283;28;20056;-77
2022/07/19 00:15:08;;;;;;;5.95;3.20;;;;;;;;;;5032581;28;20018;-77
2022/07/19 00:17:34;;;;;;;4.82;3.40;;;;;;;;;;5036186;28;20140;-76
2022/07/19 00:20:00;;;;;;;4.13;3.22;;;;;;;;;;5031646;28;20409;-76
2022/07/19 00:22:26;;;;;;;6.05;3.20;;;;;;;;;;5029196;28;20030;-76
2022/07/19 00:24:52;;;;;;;5.35;3.20;;;;;;;;;;5030867;28;20022;-76
2022/07/19 00:27:18;;;;;;;4.85;3.20;;;;;;;;;;5030972;28;20025;-77
2022/07/19 00:29:44;;;;;;;4.57;3.28;;;;;;;;;;5028785;28;20099;-74
2022/07/19 00:32:10;;;;;;;5.47;3.13;;;;;;;;;;5030645;28;20029;-76
2022/07/19 00:34:37;;;;;;;5.00;3.30;;;;;;;;;;5035517;28;20044;-77
2022/07/19 00:37:03;;;;;;;3.95;3.35;;;;;;;;;;5025855;28;20025;-76
2022/07/19 00:39:30;;;;;;;4.40;3.47;;;;;;;;;;5032867;28;20044;-76
2022/07/19 00:41:57;;;;;;;3.80;3.50;;;;;;;;;;5026494;28;20048;-77
2022/07/19 00:44:23;;;;;;;4.20;3.45;;;;;;;;;;5036288;28;20044;-76
2022/07/19 00:46:49;;;;;;;5.43;3.20;;;;;;;;;;5027560;28;20017;-76
2022/07/19 00:49:15;;;;;;;4.45;3.28;;;;;;;;;;5028688;28;20026;-77
2022/07/19 00:51:43;;;;;;;4.00;3.58;;;;;;;;;;5029429;28;20056;-76
2022/07/19 00:54:11;;;;;;;4.50;3.10;;;;;;;;;;5034676;28;20021;-75
2022/07/19 00:56:38;;;;;;;3.58;3.28;;;;;;;;;;5036662;28;20025;-76
2022/07/19 00:59:05;;;;;;;5.30;3.50;;;;;;;;;;5033129;28;20429;-75
2022/07/19 01:01:32;;;;;;;5.05;3.22;;;;;;;;;;5034645;28;20025;-76
2022/07/19 01:03:58;;;;;;;4.60;3.42;;;;;;;;;;5030840;28;20021;-76
2022/07/19 01:06:25;;;;;;;4.38;3.20;;;;;;;;;;5027307;28;20525;-76
2022/07/19 01:08:51;;;;;;;5.28;3.28;;;;;;;;;;5029005;28;20029;-76
2022/07/19 01:11:17;;;;;;;3.72;3.33;;;;;;;;;;5029108;28;20483;-76
2022/07/19 01:13:44;;;;;;;6.43;3.40;;;;;;;;;;5027971;28;20402;-75
2022/07/19 01:16:10;;;;;;;3.92;3.38;;;;;;;;;;5028756;28;20547;-76
2022/07/19 01:18:36;;;;;;;4.18;3.55;;;;;;;;;;5022618;28;20080;-76
2022/07/19 01:21:04;;;;;;;4.68;3.63;;;;;;;;;;5028772;28;20164;-77
2022/07/19 01:23:30;;;;;;;4.05;3.67;;;;;;;;;;5026744;28;20036;-75
2022/07/19 01:25:56;;;;;;;3.50;3.20;;;;;;;;;;5026288;28;20446;-76
2022/07/19 01:28:22;;;;;;;4.10;3.70;;;;;;;;;;5025934;28;20021;-77
2022/07/19 01:30:50;;;;;;;3.70;3.40;;;;;;;;;;5025732;28;20048;-76
2022/07/19 01:33:16;;;;;;;5.00;3.50;;;;;;;;;;5026443;28;20643;-75
2022/07/19 01:35:43;;;;;;;3.97;3.40;;;;;;;;;;5027498;28;20485;-76
2022/07/19 01:38:09;;;;;;;5.03;3.65;;;;;;;;;;5028051;28;20029;-76
2022/07/19 01:40:35;;;;;;;4.22;3.42;;;;;;;;;;5025572;28;20037;-76
2022/07/19 01:43:01;;;;;;;4.50;3.50;;;;;;;;;;5028072;28;20751;-76
2022/07/19 01:45:27;;;;;;;4.28;3.40;;;;;;;;;;5037147;28;20013;-76
2022/07/19 01:47:53;;;;;;;4.72;3.28;;;;;;;;;;5041234;28;20053;-76
2022/07/19 01:50:19;;;;;;;4.57;4.10;;;;;;;;;;5038906;28;20368;-75
2022/07/19 01:52:46;;;;;;;4.18;3.40;;;;;;;;;;5027734;28;20116;-76
2022/07/19 01:55:12;;;;;;;4.75;3.50;;;;;;;;;;5023432;28;20096;-75
2022/07/19 01:57:38;;;;;;;6.03;3.90;;;;;;;;;;5028405;28;20024;-75
2022/07/19 02:00:05;;;;;;;4.32;3.42;;;;;;;;;;5027458;28;20487;-75
2022/07/19 02:02:31;;;;;;;5.75;3.75;;;;;;;;;;5030342;28;20029;-76
2022/07/19 02:04:57;;;;;;;5.72;3.70;;;;;;;;;;5024944;28;20021;-76
2022/07/19 02:07:23;;;;;;;7.15;4.28;;;;;;;;;;5025118;28;20032;-76
2022/07/19 02:09:49;;;;;;;4.35;3.42;;;;;;;;;;5024610;28;20025;-76
2022/07/19 02:12:16;;;;;;;5.25;3.95;;;;;;;;;;5028802;28;20360;-76
2022/07/19 02:14:42;;;;;;;4.97;4.47;;;;;;;;;;5028162;28;20187;-78
2022/07/19 02:17:08;;;;;;;5.88;3.78;;;;;;;;;;5024970;28;20025;-76
2022/07/19 02:19:35;;;;;;;5.45;3.60;;;;;;;;;;5027520;28;20021;-76
2022/07/19 02:22:01;;;;;;;5.07;3.92;;;;;;;;;;5029374;28;20104;-76
2022/07/19 02:24:27;;;;;;;4.93;3.47;;;;;;;;;;5027334;28;20033;-76
2022/07/19 02:26:53;;;;;;;5.18;3.95;;;;;;;;;;5031451;28;20056;-78
2022/07/19 02:29:19;;;;;;;4.80;3.78;;;;;;;;;;5033349;28;20026;-75
2022/07/19 02:31:45;;;;;;;4.13;3.72;;;;;;;;;;5024734;28;20136;-76
2022/07/19 02:34:11;;;;;;;7.63;3.50;;;;;;;;;;5023015;28;20025;-76
2022/07/19 02:36:37;;;;;;;5.10;4.07;;;;;;;;;;5025342;28;20025;-77
2022/07/19 02:39:03;;;;;;;3.90;3.33;;;;;;;;;;5025896;28;20033;-76
2022/07/19 02:41:31;;;;;;;4.20;3.80;;;;;;;;;;5023448;28;20032;-77
2022/07/19 02:43:57;;;;;;;4.43;3.50;;;;;;;;;;5023973;28;20021;-76
2022/07/19 02:46:23;;;;;;;4.28;3.85;;;;;;;;;;5025579;28;20037;-75
2022/07/19 02:48:49;;;;;;;6.03;4.00;;;;;;;;;;5024302;28;20041;-76
2022/07/19 02:51:15;;;;;;;4.13;3.50;;;;;;;;;;5026763;28;20029;-75
2022/07/19 02:53:41;;;;;;;4.75;3.50;;;;;;;;;;5025872;28;20044;-76
2022/07/19 02:56:08;;;;;;;4.80;3.60;;;;;;;;;;5017041;28;20025;-75
2022/07/19 02:58:34;;;;;;;5.35;3.90;;;;;;;;;;5018627;28;20288;-75
2022/07/19 03:01:00;;;;;;;3.97;3.55;;;;;;;;;;5023008;28;20036;-75
2022/07/19 03:03:44;;;;;;;6.15;3.92;;;;;;;;;;5021834;28;20033;-74
2022/07/19 03:06:11;;;;;;;6.90;4.20;;;;;;;;;;5024717;28;20095;-74
2022/07/19 03:08:37;;;;;;;6.32;4.18;;;;;;;;;;5023531;28;20030;-76
2022/07/19 03:11:04;;;;;;;7.18;3.70;;;;;;;;;;5025304;28;20021;-75
2022/07/19 03:13:30;;;;;;;5.70;3.67;;;;;;;;;;5025178;28;20037;-74
2022/07/19 03:15:56;;;;;;;4.82;3.65;;;;;;;;;;5025353;28;20032;-76
2022/07/19 03:18:22;;;;;;;5.70;4.60;;;;;;;;;;5027111;28;20472;-77
2022/07/19 03:20:48;;;;;;;4.13;3.72;;;;;;;;;;5025514;28;20040;-76
2022/07/19 03:23:14;;;;;;;5.45;3.97;;;;;;;;;;5026755;28;20029;-77
2022/07/19 03:25:41;;;;;;;5.25;4.75;;;;;;;;;;5028829;28;20061;-76
2022/07/19 03:28:07;;;;;;;4.40;4.00;;;;;;;;;;5027656;28;20037;-76
2022/07/19 03:30:33;;;;;;;8.38;4.25;;;;;;;;;;5028987;28;20056;-77
2022/07/19 03:32:59;;;;;;;4.65;3.85;;;;;;;;;;5028658;28;20021;-76
2022/07/19 03:35:25;;;;;;;5.90;3.97;;;;;;;;;;5022650;28;20032;-76
2022/07/19 03:37:51;;;;;;;5.25;4.13;;;;;;;;;;5026967;28;20038;-76
2022/07/19 03:40:18;;;;;;;6.22;3.95;;;;;;;;;;5025056;28;20106;-76
2022/07/19 03:42:44;;;;;;;6.35;4.25;;;;;;;;;;5026027;28;20511;-76
2022/07/19 03:45:10;;;;;;;4.82;4.07;;;;;;;;;;5027277;28;20025;-76
2022/07/19 03:47:36;;;;;;;5.90;4.22;;;;;;;;;;5027389;28;20037;-77
2022/07/19 03:50:03;;;;;;;5.05;4.50;;;;;;;;;;5024728;28;20861;-76
2022/07/19 03:52:29;;;;;;;4.88;4.25;;;;;;;;;;5023896;28;20357;-77
2022/07/19 03:54:55;;;;;;;5.07;4.10;;;;;;;;;;5024899;28;20025;-75
2022/07/19 03:57:21;;;;;;;5.18;4.03;;;;;;;;;;5017154;28;20037;-76
2022/07/19 03:59:47;;;;;;;5.47;4.45;;;;;;;;;;5026898;28;20514;-76
2022/07/19 04:02:14;;;;;;;4.78;4.07;;;;;;;;;;5018494;28;20091;-76
2022/07/19 04:04:40;;;;;;;5.60;4.25;;;;;;;;;;5022065;28;20494;-76
2022/07/19 04:07:06;;;;;;;4.63;3.72;;;;;;;;;;5028007;28;20033;-76
2022/07/19 04:09:32;;;;;;;6.88;4.55;;;;;;;;;;5026494;28;20471;-76
2022/07/19 04:11:58;;;;;;;4.50;4.10;;;;;;;;;;5019037;28;20483;-76
2022/07/19 04:14:24;;;;;;;4.28;3.88;;;;;;;;;;5027258;28;20029;-76
2022/07/19 04:16:50;;;;;;;5.47;4.65;;;;;;;;;;5027251;28;20028;-77
2022/07/19 04:19:16;;;;;;;6.95;4.68;;;;;;;;;;5027339;28;20407;-75
2022/07/19 04:21:42;;;;;;;5.05;4.50;;;;;;;;;;5028841;28;20108;-75
2022/07/19 04:24:08;;;;;;;5.93;4.50;;;;;;;;;;5028986;28;20579;-76
2022/07/19 04:26:34;;;;;;;5.60;5.00;;;;;;;;;;5029749;28;20108;-76
2022/07/19 04:29:00;;;;;;;6.57;4.75;;;;;;;;;;5028447;28;20029;-75
2022/07/19 04:31:26;;;;;;;6.78;5.03;;;;;;;;;;5031044;28;20053;-76
2022/07/19 04:33:52;;;;;;;5.03;4.50;;;;;;;;;;5029550;28;20253;-76
2022/07/19 04:36:19;;;;;;;4.72;4.22;;;;;;;;;;5030999;28;20092;-76
2022/07/19 04:38:45;;;;;;;6.53;5.05;;;;;;;;;;5029011;28;20026;-76
2022/07/19 04:41:11;;;;;;;5.00;4.43;;;;;;;;;;5025203;28;20079;-75
2022/07/19 04:43:37;;;;;;;6.00;4.72;;;;;;;;;;5027309;28;20033;-76
2022/07/19 04:46:03;;;;;;;6.88;4.50;;;;;;;;;;5024294;28;20437;-76
2022/07/19 04:48:30;;;;;;;4.85;4.40;;;;;;;;;;5029222;28;20384;-75
2022/07/19 04:50:56;;;;;;;6.30;4.93;;;;;;;;;;5026566;28;20688;-76
2022/07/19 04:53:22;;;;;;;5.43;4.80;;;;;;;;;;5027870;28;20100;-75
2022/07/19 04:55:48;;;;;;;5.97;4.50;;;;;;;;;;5027690;28;20036;-75
2022/07/19 04:58:14;;;;;;;5.53;4.93;;;;;;;;;;5030689;28;20040;-76
2022/07/19 05:00:40;;;;;;;4.93;4.43;;;;;;;;;;5025296;28;20025;-76
2022/07/19 05:03:06;;;;;;;5.88;5.30;;;;;;;;;;5029874;28;20029;-77
2022/07/19 05:05:32;;;;;;;6.05;4.50;;;;;;;;;;5029468;28;20041;-77
2022/07/19 05:07:58;;;;;;;6.32;4.55;;;;;;;;;;5031480;28;20021;-76
2022/07/19 05:10:24;;;;;;;6.65;4.90;;;;;;;;;;5024684;28;20049;-76
2022/07/19 05:12:50;;;;;;;6.63;4.90;;;;;;;;;;5028926;28;20025;-76
2022/07/19 05:15:16;;;;;;;5.57;4.68;;;;;;;;;;5028834;28;20025;-76
2022/07/19 05:17:43;;;;;;;5.60;5.07;;;;;;;;;;5030365;28;20387;-76
2022/07/19 05:20:10;;;;;;;5.15;4.60;;;;;;;;;;5030243;28;20079;-77
2022/07/19 05:22:36;;;;;;;7.90;5.13;;;;;;;;;;5030899;28;20079;-76
2022/07/19 05:25:02;;;;;;;9.75;4.93;;;;;;;;;;5023213;28;20033;-76
2022/07/19 05:27:28;;;;;;;6.05;4.50;;;;;;;;;;5029786;28;20804;-75
2022/07/19 05:29:55;;;;;;;6.13;4.28;;;;;;;;;;5028910;28;20032;-75
2022/07/19 05:32:21;;;;;;;8.38;4.63;;;;;;;;;;5028370;28;20365;-76
2022/07/19 05:34:47;;;;;;;6.70;4.75;;;;;;;;;;5027495;28;20029;-76
2022/07/19 05:37:13;;;;;;;5.45;4.53;;;;;;;;;;5028562;28;20108;-76
2022/07/19 05:39:39;;;;;;;7.75;4.85;;;;;;;;;;5028785;28;20020;-76
2022/07/19 05:42:05;;;;;;;6.82;4.63;;;;;;;;;;5029573;28;20025;-76
2022/07/19 05:44:31;;;;;;;6.13;4.90;;;;;;;;;;5028938;28;20064;-76
2022/07/19 05:46:57;;;;;;;6.05;4.70;;;;;;;;;;5025475;28;20088;-76
2022/07/19 05:49:23;;;;;;;6.18;4.90;;;;;;;;;;5025881;28;20029;-76
2022/07/19 05:51:49;;;;;;;9.50;5.63;;;;;;;;;;5027547;28;20028;-77
2022/07/19 05:54:17;;;;;;;8.43;5.05;;;;;;;;;;5025420;28;20037;-76
2022/07/19 05:56:43;;;;;;;7.53;5.40;;;;;;;;;;5028258;28;20511;-75
2022/07/19 05:59:09;;;;;;;5.38;4.75;;;;;;;;;;5027302;28;20083;-76
2022/07/19 06:01:35;;;;;;;5.28;4.53;;;;;;;;;;5029587;28;20022;-76
2022/07/19 06:04:01;;;;;;;6.18;4.65;;;;;;;;;;5027754;28;20509;-76
2022/07/19 06:06:29;;;;;;;5.60;4.68;;;;;;;;;;5028595;28;20158;-76
2022/07/19 06:08:55;;;;;;;6.65;4.60;;;;;;;;;;5026485;28;20442;-77
2022/07/19 06:11:22;;;;;;;7.45;4.47;;;;;;;;;;5025028;28;20025;-77
2022/07/19 06:13:49;;;;;;;5.65;4.78;;;;;;;;;;5025221;28;20148;-76
2022/07/19 06:16:15;;;;;;;10.50;4.88;;;;;;;;;;5024040;28;20593;-75
2022/07/19 06:18:41;;;;;;;5.78;4.55;;;;;;;;;;5023385;28;20147;-76
2022/07/19 06:21:09;;;;;;;6.20;4.90;;;;;;;;;;5024949;28;20044;-76
2022/07/19 06:23:35;;;;;;;8.60;4.90;;;;;;;;;;5025104;28;20379;-75
2022/07/19 06:26:01;;;;;;;8.15;4.88;;;;;;;;;;5024808;28;20061;-76
2022/07/19 06:28:27;;;;;;;10.50;5.30;;;;;;;;;;5025428;28;20094;-76
2022/07/19 06:30:53;;;;;;;8.77;4.75;;;;;;;;;;5026708;28;20034;-76
2022/07/19 06:33:20;;;;;;;7.32;5.70;;;;;;;;;;5023771;28;20029;-77
2022/07/19 06:35:46;;;;;;;9.63;5.30;;;;;;;;;;5026132;28;20033;-76
2022/07/19 06:38:12;;;;;;;9.85;5.22;;;;;;;;;;5022608;28;20036;-77
2022/07/19 06:40:38;;;;;;;10.05;4.90;;;;;;;;;;5022800;28;20029;-76
2022/07/19 06:43:04;;;;;;;9.07;4.85;;;;;;;;;;5028408;28;20021;-76
2022/07/19 06:45:30;;;;;;;8.52;6.38;;;;;;;;;;5023644;28;20166;-77
2022/07/19 06:47:57;;;;;;;11.10;5.30;;;;;;;;;;5027799;28;20025;-76
2022/07/19 06:50:23;;;;;;;6.35;5.32;;;;;;;;;;5026204;28;20147;-76
2022/07/19 06:52:49;;;;;;;7.15;4.97;;;;;;;;;;5026241;28;20083;-76
2022/07/19 06:55:15;;;;;;;6.72;4.75;;;;;;;;;;5020047;28;20091;-76
2022/07/19 06:57:41;;;;;;;8.02;4.82;;;;;;;;;;5027129;28;20139;-75
2022/07/19 07:00:09;;;;;;;5.88;4.72;;;;;;;;;;5027445;28;20084;-76
2022/07/19 07:02:38;;;;;;;5.90;5.30;;;;;;;;;;5021192;28;20474;-76
2022/07/19 07:05:05;;;;;;;8.05;5.57;;;;;;;;;;5023938;28;20060;-76
2022/07/19 07:07:32;;;;;;;6.05;4.13;;;;;;;;;;5015958;28;20051;-77
2022/07/19 07:09:58;;;;;;;6.53;4.95;;;;;;;;;;5026955;28;20505;-77
2022/07/19 07:12:24;;;;;;;6.85;5.00;;;;;;;;;;5028018;28;20536;-76
2022/07/19 07:14:50;;;;;;;8.93;5.30;;;;;;;;;;5026479;28;20280;-76
2022/07/19 07:17:16;;;;;;;8.25;5.03;;;;;;;;;;5027039;28;20463;-77
2022/07/19 07:19:42;;;;;;;8.00;4.60;;;;;;;;;;5027643;28;20028;-76
2022/07/19 07:22:08;;;;;;;9.80;5.32;;;;;;;;;;5025609;28;20140;-76
2022/07/19 07:24:34;;;;;;;7.53;4.40;;;;;;;;;;5027421;28;20033;-78
2022/07/19 07:27:00;;;;;;;7.30;5.10;;;;;;;;;;5026628;28;20025;-76
2022/07/19 07:29:26;;;;;;;6.03;4.88;;;;;;;;;;5027496;28;20021;-78
2022/07/19 07:31:52;;;;;;;6.97;4.70;;;;;;;;;;5025576;28;20037;-76
2022/07/19 07:34:20;;;;;;;5.68;4.60;;;;;;;;;;5026869;28;20073;-77
2022/07/19 07:36:46;;;;;;;8.05;4.13;;;;;;;;;;5027439;28;20040;-76
2022/07/19 07:39:13;;;;;;;6.32;4.68;;;;;;;;;;5027928;28;20022;-76
2022/07/19 07:41:39;;;;;;;7.18;4.75;;;;;;;;;;5027622;28;20044;-77
2022/07/19 07:44:05;;;;;;;6.45;4.60;;;;;;;;;;5027862;28;20025;-75
2022/07/19 07:46:31;;;;;;;11.95;4.88;;;;;;;;;;5026277;28;20032;-76
2022/07/19 07:48:57;;;;;;;11.00;4.40;;;;;;;;;;5028906;28;20041;-77
2022/07/19 07:51:23;;;;;;;5.93;4.40;;;;;;;;;;5031408;28;20029;-77
2022/07/19 07:53:50;;;;;;;7.95;4.22;;;;;;;;;;5026457;28;20080;-77
2022/07/19 07:56:16;;;;;;;8.88;4.35;;;;;;;;;;5029602;28;20025;-76
2022/07/19 07:58:42;;;;;;;6.45;4.63;;;;;;;;;;5030152;28;20025;-76
2022/07/19 08:01:08;;;;;;;7.80;4.57;;;;;;;;;;5031334;28;20310;-77
2022/07/19 08:03:34;;;;;;;6.43;4.13;;;;;;;;;;5029601;28;20037;-77
2022/07/19 08:06:00;;;;;;;5.75;3.70;;;;;;;;;;5030925;28;20036;-78
2022/07/19 08:08:26;;;;;;;8.50;4.32;;;;;;;;;;5030719;28;20036;-77
2022/07/19 08:10:55;;;;;;;6.90;4.15;;;;;;;;;;5030551;28;20068;-78
2022/07/19 08:13:22;;;;;;;8.23;4.55;;;;;;;;;;5031322;28;20040;-77
2022/07/19 08:15:48;;;;;;;5.57;3.90;;;;;;;;;;5028805;28;20034;-77
2022/07/19 08:18:14;;;;;;;5.50;4.10;;;;;;;;;;5030085;28;20017;-76
2022/07/19 08:20:40;;;;;;;4.20;3.70;;;;;;;;;;5028087;28;20032;-77
2022/07/19 08:23:07;;;;;;;5.75;4.03;;;;;;;;;;5031494;28;20068;-76
2022/07/19 08:25:34;;;;;;;9.18;5.00;;;;;;;;;;5025689;28;20029;-76
2022/07/19 08:28:00;;;;;;;4.38;3.80;;;;;;;;;;5031308;28;20075;-76
2022/07/19 08:30:26;;;;;;;7.35;4.05;;;;;;;;;;5030804;28;20072;-76
2022/07/19 08:32:52;;;;;;;5.18;4.20;;;;;;;;;;5030370;28;20021;-77
2022/07/19 08:35:18;;;;;;;3.85;3.53;;;;;;;;;;5031031;28;20022;-76
2022/07/19 08:37:44;;;;;;;5.97;3.55;;;;;;;;;;5030186;28;20097;-76
2022/07/19 08:40:11;;;;;;;4.60;3.50;;;;;;;;;;5030164;28;20025;-76
2022/07/19 08:42:37;;;;;;;4.78;3.28;;;;;;;;;;5029592;28;20024;-77
2022/07/19 08:45:10;;;;;;;9.82;3.63;;;;;;;;;;5031218;28;20041;-76
2022/07/19 08:47:37;;;;;;;5.50;3.55;;;;;;;;;;5028930;28;20018;-75
2022/07/19 08:50:05;;;;;;;4.40;3.38;;;;;;;;;;5025318;28;20418;-76
2022/07/19 08:52:35;;;;;;;4.88;3.50;;;;;;;;;;5027983;28;20101;-75
2022/07/19 08:55:02;;;;;;;5.30;3.65;;;;;;;;;;5027006;28;20031;-77
2022/07/19 09:00:13;;;;;;;;;;;;;;;;;;5028651;28;20045;-76
2022/07/19 09:02:39;;;;;;;5.78;3.65;;;;;;;;;;5029313;28;19909;-76
2022/07/19 09:05:07;;;;;;;6.03;3.70;;;;;;;;;;5029151;28;20036;-76
2022/07/19 09:07:35;;;;;;;3.92;3.25;;;;;;;;;;5026633;28;20084;-77
2022/07/19 09:10:17;;;;;;;4.78;3.58;;;;;;;;;;5028214;28;20025;-76
2022/07/19 09:12:58;;;;;;;5.80;3.38;;;;;;;;;;5029109;28;20108;-76
2022/07/19 09:15:43;;;;;;;5.47;3.75;;;;;;;;;;5029981;28;20517;-75
2022/07/19 09:18:17;;;;;;;4.35;3.20;;;;;;;;;;5029011;28;20021;-76
2022/07/19 09:20:44;;;;;;;7.35;3.88;;;;;;;;;;5025761;28;20036;-76
2022/07/19 09:23:10;;;;;;;5.80;3.75;;;;;;;;;;5028834;28;20053;-76
2022/07/19 09:25:39;;;;;;;5.45;3.90;;;;;;;;;;5028865;28;20054;-76
2022/07/19 09:28:06;;;;;;;5.88;4.07;;;;;;;;;;5030392;28;20125;-77
2022/07/19 09:30:34;;;;;;;4.88;3.42;;;;;;;;;;5027589;28;20427;-75
2022/07/19 09:33:17;;;;;;;5.25;3.72;;;;;;;;;;5029550;28;20026;-76
2022/07/19 09:35:48;;;;;;;4.78;3.65;;;;;;;;;;5028164;28;20034;-75
2022/07/19 09:38:15;;;;;;;4.85;3.58;;;;;;;;;;5026509;28;20433;-77
2022/07/19 09:40:41;;;;;;;6.75;3.60;;;;;;;;;;5027754;28;20304;-76
2022/07/19 09:43:07;;;;;;;4.22;3.65;;;;;;;;;;5032892;28;20454;-77
2022/07/19 09:45:33;;;;;;;4.45;3.58;;;;;;;;;;5033054;28;20045;-76
2022/07/19 09:48:03;;;;;;;4.95;3.50;;;;;;;;;;5029863;28;20082;-78
2022/07/19 09:50:30;;;;;;;4.70;3.65;;;;;;;;;;5030735;28;20080;-77
2022/07/19 09:52:58;;;;;;;7.22;3.85;;;;;;;;;;5031054;28;20320;-77
2022/07/19 09:55:25;;;;;;;6.30;3.65;;;;;;;;;;5027734;28;20025;-76
2022/07/19 09:57:51;;;;;;;5.30;3.90;;;;;;;;;;5024530;28;20022;-76
2022/07/19 10:00:19;;;;;;;7.10;4.13;;;;;;;;;;5026550;28;20384;-76
2022/07/19 10:02:48;;;;;;;8.23;4.30;;;;;;;;;;5028780;28;20136;-76
2022/07/19 10:05:15;;;;;;;7.05;4.85;;;;;;;;;;5023140;28;20056;-76
2022/07/19 10:07:41;;;;;;;9.65;4.90;;;;;;;;;;5023799;28;20049;-76
2022/07/19 10:10:10;;;;;;;6.55;4.40;;;;;;;;;;5028141;28;20053;-75
2022/07/19 10:12:37;;;;;;;9.32;4.45;;;;;;;;;;5028603;28;20353;-76
2022/07/19 10:15:04;;;;;;;8.35;4.20;;;;;;;;;;5027321;28;20404;-75
2022/07/19 10:17:36;;;;;;;5.60;3.90;;;;;;;;;;5025639;28;20391;-76
2022/07/19 10:20:04;;;;;;;4.88;3.90;;;;;;;;;;5029244;28;20376;-76
2022/07/19 10:22:30;;;;;;;5.75;3.80;;;;;;;;;;5026560;28;20460;-75
2022/07/19 10:25:05;;;;;;;4.85;3.97;;;;;;;;;;5027069;28;20018;-77
2022/07/19 10:27:36;;;;;;;8.45;3.92;;;;;;;;;;5025733;28;20030;-76
2022/07/19 10:30:08;;;;;;;7.97;4.22;;;;;;;;;;5025608;28;20049;-76
2022/07/19 10:32:34;;;;;;;8.25;4.63;;;;;;;;;;5023739;28;20026;-76
2022/07/19 10:35:19;;;;;;;6.32;3.78;;;;;;;;;;5027231;28;20025;-76
2022/07/19 10:37:45;;;;;;;;;;;;;;;;;;5024741;28;20428;-76
2022/07/19 10:40:11;;;;;;;5.13;4.00;;;;;;;;;;5022464;28;19912;-76
2022/07/19 10:42:48;;;;;;;6.03;3.88;;;;;;;;;;5028707;28;20022;-76
2022/07/19 10:45:15;;;;;;;4.60;3.75;;;;;;;;;;5027813;28;20099;-76
2022/07/19 10:47:42;;;;;;;4.25;3.58;;;;;;;;;;5025959;28;20451;-76
2022/07/19 10:50:16;;;;;;;4.03;3.63;;;;;;;;;;5028476;28;20065;-77
2022/07/19 10:52:42;;;;;;;4.38;3.50;;;;;;;;;;5024250;28;20021;-74
2022/07/19 10:55:18;;;;;;;4.53;3.45;;;;;;;;;;5024508;28;20044;-75
2022/07/19 10:57:45;;;;;;;5.68;3.60;;;;;;;;;;5025671;28;20287;-75
2022/07/19 11:00:21;;;;;;;3.85;3.45;;;;;;;;;;5027976;28;20022;-75
2022/07/19 11:02:47;;;;;;;6.57;3.50;;;;;;;;;;5025062;28;20057;-75
2022/07/19 11:05:27;;;;;;;5.10;3.85;;;;;;;;;;5023327;28;20087;-76
2022/07/19 11:07:54;;;;;;;3.65;3.35;;;;;;;;;;5025872;28;20021;-76
2022/07/19 11:10:25;;;;;;;7.80;4.35;;;;;;;;;;5025567;28;20117;-75
2022/07/19 11:12:51;;;;;;;6.60;4.35;;;;;;;;;;5027876;28;20410;-76
2022/07/19 11:15:18;;;;;;;6.60;4.60;;;;;;;;;;5025395;28;20061;-76
2022/07/19 11:17:54;;;;;;;4.70;4.10;;;;;;;;;;5027974;28;20112;-76
2022/07/19 11:20:22;;;;;;;5.10;4.00;;;;;;;;;;5015840;28;20025;-75
2022/07/19 11:22:49;;;;;;;4.65;4.10;;;;;;;;;;5030486;28;20440;-75
2022/07/19 11:25:16;;;;;;;4.50;3.83;;;;;;;;;;5030627;28;20021;-75
2022/07/19 11:27:45;;;;;;;7.47;4.78;;;;;;;;;;5031841;28;20118;-74
2022/07/19 11:30:12;;;;;;;6.05;4.25;;;;;;;;;;5026804;28;20049;-76
2022/07/19 11:32:41;;;;;;;8.10;4.70;;;;;;;;;;5023992;28;20092;-75
2022/07/19 11:35:08;;;;;;;6.47;4.05;;;;;;;;;;5027720;28;20052;-75
2022/07/19 11:37:35;;;;;;;8.07;4.22;;;;;;;;;;5032837;28;20026;-76
2022/07/19 11:40:01;;;;;;;7.30;4.40;;;;;;;;;;5031075;28;20036;-78
2022/07/19 11:42:31;;;;;;;7.10;4.60;;;;;;;;;;5032248;28;20072;-77
2022/07/19 11:44:57;;;;;;;6.57;4.47;;;;;;;;;;5030213;28;20025;-76
2022/07/19 11:47:23;;;;;;;6.75;3.95;;;;;;;;;;5031720;28;20037;-76
2022/07/19 11:49:49;;;;;;;6.97;4.40;;;;;;;;;;5031175;28;20462;-77
2022/07/19 11:52:15;;;;;;;5.30;4.00;;;;;;;;;;5032038;28;20112;-76
2022/07/19 11:54:41;;;;;;;5.70;4.15;;;;;;;;;;5028898;28;20036;-75
2022/07/19 11:57:23;;;;;;;5.38;4.35;;;;;;;;;;5031049;28;20191;-75
2022/07/19 11:59:49;;;;;;;6.00;3.85;;;;;;;;;;5030708;28;20030;-75
2022/07/19 12:02:16;;;;;;;6.55;4.20;;;;;;;;;;5029590;28;20502;-75
2022/07/19 12:04:42;;;;;;;6.05;4.30;;;;;;;;;;5025878;28;20442;-75
2022/07/19 12:07:08;;;;;;;6.63;4.78;;;;;;;;;;5024090;28;20244;-75
2022/07/19 12:09:34;;;;;;;6.95;4.10;;;;;;;;;;5020878;28;20072;-75
2022/07/19 12:12:11;;;;;;;5.38;4.00;;;;;;;;;;5031258;28;20383;-75
2022/07/19 12:14:37;;;;;;;7.93;4.82;;;;;;;;;;5021680;28;20028;-75
2022/07/19 12:17:33;;;;;;;6.88;4.72;;;;;;;;;;5028417;28;20442;-75
2022/07/19 12:19:59;;;;;;;;;;;;;;;;;;5021027;28;20099;-75
2022/07/19 12:22:38;;;;;;;10.55;4.93;;;;;;;;;;5031306;28;19913;-75
2022/07/19 12:25:06;;;;;;;7.65;5.10;;;;;;;;;;5029862;28;20034;-76
2022/07/19 12:27:32;;;;;;;7.13;4.40;;;;;;;;;;5031631;28;20136;-75
2022/07/19 12:29:59;;;;;;;5.10;4.15;;;;;;;;;;5029787;28;20029;-75
2022/07/19 12:32:28;;;;;;;11.25;4.28;;;;;;;;;;5028982;28;20431;-74
2022/07/19 12:35:02;;;;;;;5.72;4.50;;;;;;;;;;5019235;28;20032;-75
2022/07/19 12:37:28;;;;;;;5.82;4.32;;;;;;;;;;5030120;28;20584;-75
2022/07/19 12:39:58;;;;;;;6.38;4.18;;;;;;;;;;5024581;28;20029;-75
2022/07/19 12:42:24;;;;;;;6.07;4.32;;;;;;;;;;5025499;28;20391;-75
2022/07/19 12:44:51;;;;;;;6.15;3.70;;;;;;;;;;5028779;28;20630;-75
2022/07/19 12:47:17;;;;;;;7.07;4.38;;;;;;;;;;5028696;28;20029;-75
2022/07/19 12:49:49;;;;;;;5.70;4.40;;;;;;;;;;5027587;28;20120;-76
2022/07/19 12:52:15;;;;;;;6.82;4.28;;;;;;;;;;5028806;28;20432;-75
2022/07/19 12:54:41;;;;;;;5.18;4.10;;;;;;;;;;5029094;28;20106;-75
2022/07/19 12:57:07;;;;;;;4.97;4.47;;;;;;;;;;5030680;28;20472;-75
2022/07/19 12:59:39;;;;;;;5.28;4.78;;;;;;;;;;5030694;28;20051;-75
2022/07/19 13:02:06;;;;;;;6.50;4.20;;;;;;;;;;5027709;28;20041;-76
2022/07/19 13:04:32;;;;;;;7.15;4.30;;;;;;;;;;5020244;28;20030;-75
2022/07/19 13:06:58;;;;;;;5.72;4.32;;;;;;;;;;5026821;28;20147;-75
2022/07/19 13:09:24;;;;;;;5.97;4.97;;;;;;;;;;5026463;28;20487;-77
2022/07/19 13:11:50;;;;;;;8.40;5.05;;;;;;;;;;5024125;28;20029;-75
2022/07/19 13:14:16;;;;;;;4.82;4.03;;;;;;;;;;5029584;28;20026;-75
2022/07/19 13:16:42;;;;;;;4.53;4.00;;;;;;;;;;5030170;28;20092;-75
2022/07/19 13:19:09;;;;;;;7.57;4.95;;;;;;;;;;5029109;28;20174;-75
2022/07/19 13:21:36;;;;;;;7.10;4.13;;;;;;;;;;5026797;28;20083;-74
2022/07/19 13:24:02;;;;;;;4.80;3.75;;;;;;;;;;5027711;28;20419;-76
2022/07/19 13:26:28;;;;;;;7.15;4.18;;;;;;;;;;5028639;28;20032;-75
2022/07/19 13:28:54;;;;;;;5.90;4.03;;;;;;;;;;5028014;28;20033;-76
2022/07/19 13:31:20;;;;;;;4.68;4.18;;;;;;;;;;5023045;28;20038;-75
2022/07/19 13:33:46;;;;;;;6.32;4.35;;;;;;;;;;5025642;28;20495;-75
2022/07/19 13:36:12;;;;;;;5.32;4.03;;;;;;;;;;5028254;28;20066;-75
2022/07/19 13:38:40;;;;;;;7.68;4.50;;;;;;;;;;5026454;28;20475;-74
2022/07/19 13:41:07;;;;;;;5.68;4.03;;;;;;;;;;5027298;28;20029;-74
2022/07/19 13:43:33;;;;;;;5.97;4.35;;;;;;;;;;5026770;28;20028;-75
2022/07/19 13:45:59;;;;;;;4.63;4.15;;;;;;;;;;5027547;28;20122;-75
2022/07/19 13:48:26;;;;;;;4.30;3.90;;;;;;;;;;5028463;28;20026;-75
2022/07/19 13:50:52;;;;;;;7.47;3.70;;;;;;;;;;5028561;28;20030;-75
2022/07/19 13:53:18;;;;;;;6.05;3.83;;;;;;;;;;5024883;28;20108;-75
2022/07/19 13:55:44;;;;;;;6.68;4.38;;;;;;;;;;5028191;28;20064;-75
2022/07/19 13:58:10;;;;;;;8.02;4.20;;;;;;;;;;5027886;28;20021;-75
2022/07/19 14:00:37;;;;;;;6.18;4.20;;;;;;;;;;5027590;28;20076;-75
2022/07/19 14:03:03;;;;;;;5.57;4.75;;;;;;;;;;5023640;28;20036;-75
2022/07/19 14:05:29;;;;;;;5.72;4.15;;;;;;;;;;5027892;28;20030;-75
2022/07/19 14:07:55;;;;;;;6.25;3.83;;;;;;;;;;5028939;28;20079;-75
2022/07/19 14:10:21;;;;;;;5.78;3.90;;;;;;;;;;5028228;28;20040;-75
2022/07/19 14:12:47;;;;;;;6.22;3.92;;;;;;;;;;5020893;28;20060;-76
2022/07/19 14:15:16;;;;;;;4.82;3.90;;;;;;;;;;5027762;28;20444;-75
2022/07/19 14:17:42;;;;;;;5.22;4.03;;;;;;;;;;5025607;28;20025;-76
2022/07/19 14:20:08;;;;;;;5.63;4.00;;;;;;;;;;5022717;28;20103;-75
2022/07/19 14:22:34;;;;;;;4.35;3.53;;;;;;;;;;5021786;28;20026;-76
2022/07/19 14:25:00;;;;;;;5.20;4.00;;;;;;;;;;5028128;28;20017;-76
2022/07/19 14:27:26;;;;;;;6.90;4.20;;;;;;;;;;5028677;28;20026;-76
2022/07/19 14:29:52;;;;;;;6.80;4.25;;;;;;;;;;5028571;28;20369;-75
2022/07/19 14:32:19;;;;;;;6.75;4.40;;;;;;;;;;5026310;28;20035;-76
2022/07/19 14:34:45;;;;;;;5.05;4.03;;;;;;;;;;5024161;28;20041;-75
2022/07/19 14:37:11;;;;;;;5.32;4.05;;;;;;;;;;5024730;28;20411;-75
2022/07/19 14:39:37;;;;;;;5.35;4.22;;;;;;;;;;5027654;28;20018;-75
2022/07/19 14:42:04;;;;;;;8.93;4.90;;;;;;;;;;5028107;28;20052;-75
2022/07/19 14:44:30;;;;;;;6.25;4.40;;;;;;;;;;5026735;28;20048;-74